createdAt,value
2023-02-24T00:02:01.594Z,15.00
2023-02-24T00:04:39.923Z,14.32
2023-02-24T00:07:10.769Z,12.18
2023-02-24T00:09:41.416Z,10.95
2023-02-24T00:12:13.237Z,12.02
2023-02-24T00:14:42.874Z,10.43
2023-02-24T00:17:12.461Z,17.58
2023-02-24T00:19:39.532Z,12.68
2023-02-24T00:22:08.404Z,13.73
2023-02-24T00:24:35.980Z,14.07
2023-02-24T00:27:08.414Z,11.98
2023-02-24T00:29:37.861Z,13.00
2023-02-24T00:32:07.520Z,13.95
2023-02-24T00:34:37.774Z,13.23
2023-02-24T00:37:09.168Z,14.70
2023-02-24T00:39:37.441Z,11.52
2023-02-24T00:42:06.296Z,11.45
2023-02-24T00:44:39.398Z,14.98
2023-02-24T00:47:09.194Z,13.07
2023-02-24T00:49:42.715Z,14.35
2023-02-24T00:52:19.645Z,10.55
2023-02-24T00:54:48.835Z,13.05
2023-02-24T00:57:18.641Z,18.15
2023-02-24T00:59:51.531Z,11.15
2023-02-24T01:02:18.867Z,15.60
2023-02-24T01:04:46.137Z,13.43
2023-02-24T01:07:13.686Z,9.43
2023-02-24T01:09:42.148Z,12.13
2023-02-24T01:12:30.044Z,10.25
2023-02-24T01:14:57.545Z,9.30
2023-02-24T01:17:25.630Z,14.20
2023-02-24T01:19:53.367Z,10.98
2023-02-24T01:22:21.089Z,10.77
2023-02-24T01:24:48.712Z,11.75
2023-02-24T01:27:20.001Z,12.38
2023-02-24T01:29:48.490Z,11.38
2023-02-24T01:32:21.696Z,12.05
2023-02-24T01:34:52.631Z,11.50
2023-02-24T01:37:20.384Z,11.95
2023-02-24T01:39:48.493Z,9.52
2023-02-24T01:42:19.885Z,9.57
2023-02-24T01:44:47.772Z,8.88
2023-02-24T01:47:18.570Z,10.98
2023-02-24T01:49:48.234Z,14.73
2023-02-24T01:52:18.243Z,9.18
2023-02-24T01:54:59.199Z,12.32
2023-02-24T01:57:31.485Z,11.90
2023-02-24T02:00:11.213Z,11.15
2023-02-24T02:02:42.554Z,13.40
2023-02-24T02:05:11.623Z,12.73
2023-02-24T02:07:41.021Z,10.10
2023-02-24T02:10:10.149Z,15.88
2023-02-24T02:12:44.758Z,9.52
2023-02-24T02:15:15.720Z,14.93
2023-02-24T02:17:57.643Z,11.35
2023-02-24T02:20:27.783Z,18.00
2023-02-24T02:22:54.775Z,11.00
2023-02-24T02:25:57.970Z,13.02
2023-02-24T02:28:49.366Z,10.40
2023-02-24T02:31:50.967Z,9.40
2023-02-24T02:34:24.201Z,13.68
2023-02-24T02:37:08.396Z,15.45
2023-02-24T02:40:09.224Z,11.63
2023-02-24T02:42:50.559Z,12.23
2023-02-24T02:45:29.990Z,8.52
2023-02-24T02:48:13.842Z,14.82
2023-02-24T02:50:55.425Z,15.20
2023-02-24T02:56:22.492Z,11.32
2023-02-24T02:58:54.259Z,11.77
2023-02-24T03:01:30.174Z,11.40
2023-02-24T03:04:04.853Z,11.18
2023-02-24T03:06:43.371Z,10.25
2023-02-24T03:09:16.415Z,12.55
2023-02-24T03:11:48.484Z,12.27
2023-02-24T03:14:18.643Z,12.13
2023-02-24T03:16:49.400Z,14.65
2023-02-24T03:19:20.800Z,11.73
2023-02-24T03:21:58.791Z,10.68
2023-02-24T03:24:28.145Z,10.07
2023-02-24T03:27:15.322Z,11.60
2023-02-24T03:29:54.170Z,22.05
2023-02-24T03:32:44.117Z,10.13
2023-02-24T03:35:15.289Z,13.15
2023-02-24T03:37:42.622Z,8.50
2023-02-24T03:40:14.847Z,12.40
2023-02-24T03:42:48.092Z,14.52
2023-02-24T03:45:17.160Z,14.70
2023-02-24T03:47:46.844Z,12.18
2023-02-24T03:50:17.038Z,10.35
2023-02-24T03:53:09.800Z,13.43
2023-02-24T03:56:18.486Z,10.85
2023-02-24T03:58:54.758Z,11.20
2023-02-24T04:02:10.113Z,14.43
2023-02-24T04:04:43.828Z,13.15
2023-02-24T04:07:23.931Z,10.10
2023-02-24T04:10:05.502Z,12.52
2023-02-24T04:12:50.050Z,10.60
2023-02-24T04:15:30.090Z,17.83
2023-02-24T04:18:03.291Z,10.32
2023-02-24T04:20:33.129Z,10.88
2023-02-24T04:23:08.797Z,14.30
2023-02-24T04:25:36.792Z,11.88
2023-02-24T04:28:08.149Z,9.90
2023-02-24T04:30:39.646Z,14.00
2023-02-24T04:33:07.963Z,11.77
2023-02-24T04:35:35.157Z,10.32
2023-02-24T04:38:02.262Z,10.55
2023-02-24T04:40:29.397Z,10.95
2023-02-24T04:42:56.756Z,9.05
2023-02-24T04:45:29.477Z,12.57
2023-02-24T04:48:02.273Z,14.30
2023-02-24T04:50:39.040Z,12.10
2023-02-24T04:53:13.133Z,16.42
2023-02-24T04:55:42.749Z,12.93
2023-02-24T04:58:19.419Z,15.77
2023-02-24T05:00:58.065Z,11.55
2023-02-24T05:03:29.332Z,11.63
2023-02-24T05:06:00.409Z,11.40
2023-02-24T05:08:29.683Z,12.88
2023-02-24T05:10:58.812Z,9.85
2023-02-24T05:13:28.969Z,19.38
2023-02-24T05:16:00.323Z,17.02
2023-02-24T05:18:30.283Z,9.20
2023-02-24T05:21:16.271Z,11.00
2023-02-24T05:23:46.079Z,11.40
2023-02-24T05:26:18.029Z,11.13
2023-02-24T05:28:49.501Z,11.85
2023-02-24T05:31:24.160Z,11.38
2023-02-24T05:33:57.861Z,9.48
2023-02-24T05:36:27.726Z,15.90
2023-02-24T05:38:58.294Z,9.88
2023-02-24T05:41:36.161Z,16.83
2023-02-24T05:44:10.963Z,11.32
2023-02-24T05:46:42.222Z,10.43
2023-02-24T05:49:24.339Z,12.13
2023-02-24T05:51:55.928Z,17.52
2023-02-24T05:54:35.579Z,13.88
2023-02-24T05:57:06.767Z,10.93
2023-02-24T05:59:34.367Z,15.38
2023-02-24T06:02:07.370Z,13.02
2023-02-24T06:04:39.624Z,12.73
2023-02-24T06:07:19.813Z,11.30
2023-02-24T06:09:50.672Z,9.35
2023-02-24T06:12:18.584Z,16.88
2023-02-24T06:14:45.619Z,17.40
2023-02-24T06:17:15.253Z,14.32
2023-02-24T06:19:46.813Z,9.88
2023-02-24T06:22:15.392Z,10.63
2023-02-24T06:24:44.409Z,11.07
2023-02-24T06:27:17.858Z,11.85
2023-02-24T06:29:47.894Z,16.48
2023-02-24T06:32:14.939Z,16.25
2023-02-24T06:34:42.359Z,14.93
2023-02-24T06:37:13.025Z,11.32
2023-02-24T06:39:40.526Z,19.65
2023-02-24T06:42:08.973Z,16.83
2023-02-24T06:44:38.589Z,12.32
2023-02-24T06:47:07.717Z,14.18
2023-02-24T06:49:34.780Z,16.92
2023-02-24T06:52:01.799Z,22.30
2023-02-24T06:54:30.481Z,14.93
2023-02-24T06:56:59.434Z,12.20
2023-02-24T06:59:29.386Z,14.77
2023-02-24T07:01:58.047Z,16.33
2023-02-24T07:04:28.240Z,12.32
2023-02-24T07:06:57.890Z,18.58
2023-02-24T07:09:26.589Z,11.90
2023-02-24T07:11:56.132Z,14.07
2023-02-24T07:14:25.542Z,9.77
2023-02-24T07:16:54.391Z,12.45
2023-02-24T07:21:52.689Z,12.95
2023-02-24T07:24:25.445Z,16.02
2023-02-24T07:26:57.596Z,12.18
2023-02-24T07:29:26.680Z,12.82
2023-02-24T07:31:56.939Z,15.30
2023-02-24T07:34:25.196Z,15.38
2023-02-24T07:36:54.628Z,14.98
2023-02-24T07:39:25.749Z,14.50
2023-02-24T07:41:57.108Z,15.80
2023-02-24T07:44:24.591Z,15.13
2023-02-24T07:46:52.400Z,13.82
2023-02-24T07:49:23.417Z,18.85
2023-02-24T07:51:52.721Z,11.50
2023-02-24T07:54:21.416Z,22.58
2023-02-24T07:56:56.820Z,22.05
2023-02-24T07:59:29.990Z,14.93
2023-02-24T08:01:57.516Z,17.58
2023-02-24T08:04:30.175Z,15.10
2023-02-24T08:07:02.610Z,14.80
2023-02-24T08:09:44.768Z,14.57
2023-02-24T08:12:22.699Z,13.43
2023-02-24T08:14:52.779Z,10.65
2023-02-24T08:17:22.997Z,13.20
2023-02-24T08:20:12.448Z,14.18
2023-02-24T08:22:44.056Z,18.17
2023-02-24T08:25:18.330Z,17.10
2023-02-24T08:28:06.737Z,17.65
2023-02-24T08:30:39.493Z,19.85
2023-02-24T08:33:09.463Z,14.40
2023-02-24T08:35:39.261Z,16.38
2023-02-24T08:38:14.430Z,20.10
2023-02-24T08:40:51.763Z,14.07
2023-02-24T08:43:33.141Z,20.63
2023-02-24T08:46:13.389Z,14.35
2023-02-24T08:48:44.092Z,11.43
2023-02-24T08:51:22.960Z,16.40
2023-02-24T08:53:53.244Z,14.52
2023-02-24T08:56:34.844Z,11.30
2023-02-24T08:59:08.003Z,14.25
2023-02-24T09:01:38.008Z,17.88
2023-02-24T09:04:19.761Z,12.25
2023-02-24T09:07:10.751Z,15.10
2023-02-24T09:09:42.220Z,11.43
2023-02-24T09:12:21.674Z,14.02
2023-02-24T09:14:57.938Z,12.55
2023-02-24T09:17:45.172Z,11.32
2023-02-24T09:20:33.308Z,9.25
2023-02-24T09:23:03.928Z,10.88
2023-02-24T09:25:41.817Z,18.08
2023-02-24T09:28:19.919Z,9.63
2023-02-24T09:31:01.521Z,9.93
2023-02-24T09:33:39.127Z,12.45
2023-02-24T09:36:20.346Z,8.45
2023-02-24T09:41:56.943Z,11.20
2023-02-24T09:44:34.651Z,8.77
2023-02-24T09:47:09.196Z,9.25
2023-02-24T09:50:00.632Z,11.10
2023-02-24T09:52:42.108Z,11.48
2023-02-24T09:55:27.753Z,10.77
2023-02-24T09:58:18.144Z,9.52
2023-02-24T10:01:01.145Z,7.70
2023-02-24T10:03:48.150Z,11.40
2023-02-24T10:06:23.476Z,13.10
2023-02-24T10:11:54.286Z,10.70
2023-02-24T10:14:53.847Z,11.07
2023-02-24T10:20:14.089Z,9.10
2023-02-24T10:22:50.826Z,7.90
2023-02-24T10:25:21.570Z,11.07
2023-02-24T10:28:12.512Z,10.73
2023-02-24T10:31:01.669Z,7.40
2023-02-24T10:33:38.790Z,10.45
2023-02-24T10:36:11.653Z,13.18
2023-02-24T10:38:47.128Z,10.27
2023-02-24T10:41:15.169Z,9.27
2023-02-24T10:43:53.860Z,14.38
2023-02-24T10:46:41.661Z,10.35
2023-02-24T10:49:16.505Z,6.82
2023-02-24T10:51:51.395Z,8.48
2023-02-24T10:54:34.659Z,9.45
2023-02-24T10:57:08.209Z,9.23
2023-02-24T11:00:30.992Z,11.25
2023-02-24T11:03:08.483Z,10.82
2023-02-24T11:05:56.546Z,9.13
2023-02-24T11:08:36.835Z,9.77
2023-02-24T11:11:26.113Z,8.70
2023-02-24T11:14:12.852Z,7.32
2023-02-24T11:17:04.045Z,7.68
2023-02-24T11:19:50.359Z,10.25
2023-02-24T11:22:36.260Z,6.75
2023-02-24T11:25:19.648Z,9.05
2023-02-24T11:27:47.464Z,8.27
2023-02-24T11:30:31.224Z,9.60
2023-02-24T11:33:15.424Z,15.15
2023-02-24T11:36:20.658Z,11.25
2023-02-24T11:43:55.594Z,8.55
2023-02-24T11:46:49.035Z,10.73
2023-02-24T11:52:04.023Z,9.82
2023-02-24T11:54:46.119Z,15.50
2023-02-24T12:08:03.307Z,10.95
2023-02-24T12:10:41.765Z,11.50
2023-02-24T12:13:51.193Z,12.93
2023-02-24T12:16:24.138Z,12.25
2023-02-24T12:19:11.896Z,10.35
2023-02-24T12:21:45.958Z,7.97
2023-02-24T12:24:16.829Z,11.93
2023-02-24T12:26:54.598Z,16.83
2023-02-24T12:30:06.634Z,13.45
2023-02-24T12:33:04.018Z,9.38
2023-02-24T12:35:53.020Z,19.25
2023-02-24T12:38:48.627Z,13.05
2023-02-24T12:41:41.837Z,14.57
2023-02-24T12:44:46.114Z,9.27
2023-02-24T12:47:25.776Z,13.50
2023-02-24T12:49:53.048Z,11.48
2023-02-24T12:52:40.760Z,11.30
2023-02-24T12:55:22.067Z,9.77
2023-02-24T13:01:07.704Z,14.52
2023-02-24T13:03:49.742Z,13.32
2023-02-24T13:06:23.003Z,11.10
2023-02-24T13:09:00.945Z,17.50
2023-02-24T13:11:40.315Z,15.15
2023-02-24T13:14:41.069Z,9.27
2023-02-24T13:17:15.691Z,11.32
2023-02-24T13:19:44.493Z,14.05
2023-02-24T13:22:11.499Z,13.75
2023-02-24T13:24:56.214Z,14.40
2023-02-24T13:28:00.336Z,12.02
2023-02-24T13:30:43.220Z,17.42
2023-02-24T13:33:19.082Z,13.90
2023-02-24T13:35:49.136Z,16.60
2023-02-24T13:38:24.965Z,13.07
2023-02-24T13:40:54.572Z,13.38
2023-02-24T13:43:33.135Z,12.55
2023-02-24T13:46:04.470Z,17.55
2023-02-24T13:49:02.924Z,8.98
2023-02-24T13:51:46.362Z,14.25
2023-02-24T13:54:37.498Z,10.60
2023-02-24T13:57:25.607Z,13.77
2023-02-24T13:59:58.529Z,10.18
2023-02-24T14:02:31.296Z,14.50
2023-02-24T14:05:08.487Z,17.33
2023-02-24T14:07:38.918Z,13.57
2023-02-24T14:10:19.013Z,11.73
2023-02-24T14:12:48.131Z,16.90
2023-02-24T14:15:22.030Z,11.25
2023-02-24T14:18:01.347Z,12.32
2023-02-24T14:20:32.999Z,13.55
2023-02-24T14:23:01.712Z,13.98
2023-02-24T14:25:38.222Z,10.48
2023-02-24T14:28:05.264Z,11.75
2023-02-24T14:30:40.732Z,11.45
2023-02-24T14:33:34.616Z,13.07
2023-02-24T14:36:07.587Z,12.40
2023-02-24T14:38:36.362Z,13.10
2023-02-24T14:41:06.699Z,15.18
2023-02-24T14:43:41.505Z,12.57
2023-02-24T14:46:09.520Z,14.23
2023-02-24T14:48:36.611Z,9.73
2023-02-24T14:51:31.270Z,13.05
2023-02-24T14:54:02.026Z,12.63
2023-02-24T14:56:33.544Z,11.85
2023-02-24T14:59:38.403Z,14.70
2023-02-24T15:02:21.846Z,9.63
2023-02-24T15:04:49.438Z,12.70
2023-02-24T15:07:24.041Z,13.27
2023-02-24T15:09:52.871Z,11.63
2023-02-24T15:12:28.985Z,13.18
2023-02-24T15:15:15.099Z,14.27
2023-02-24T15:17:42.224Z,13.35
2023-02-24T15:20:35.881Z,15.43
2023-02-24T15:25:45.968Z,18.33
2023-02-24T15:28:25.998Z,14.27
2023-02-24T15:31:03.838Z,17.02
2023-02-24T15:33:42.964Z,16.50
2023-02-24T15:36:20.080Z,20.48
2023-02-24T15:38:51.200Z,17.25
2023-02-24T15:41:18.253Z,15.00
2023-02-24T15:43:45.707Z,16.40
2023-02-24T15:46:18.773Z,11.63
2023-02-24T15:48:49.148Z,16.55
2023-02-24T15:51:45.449Z,14.65
2023-02-24T15:54:18.680Z,13.90
2023-02-24T15:56:49.868Z,16.17
2023-02-24T15:59:21.234Z,15.93
2023-02-24T16:01:48.447Z,13.38
2023-02-24T16:04:15.692Z,12.80
2023-02-24T16:06:54.347Z,13.50
2023-02-24T16:09:37.098Z,15.85
2023-02-24T16:12:10.334Z,10.88
2023-02-24T16:14:37.942Z,12.73
2023-02-24T16:17:18.848Z,11.85
2023-02-24T16:19:46.000Z,15.55
2023-02-24T16:22:13.048Z,11.18
2023-02-24T16:24:40.131Z,9.00
2023-02-24T16:27:09.008Z,13.13
2023-02-24T16:29:38.824Z,12.55
2023-02-24T16:32:12.934Z,16.20
2023-02-24T16:34:40.314Z,15.75
2023-02-24T16:37:28.247Z,12.70
2023-02-24T16:39:57.119Z,15.80
2023-02-24T16:42:24.104Z,14.38
2023-02-24T16:44:51.432Z,12.30
2023-02-24T16:47:22.471Z,13.73
2023-02-24T16:49:50.100Z,17.70
2023-02-24T16:52:19.108Z,14.80
2023-02-24T16:54:48.263Z,10.73
2023-02-24T16:57:15.485Z,19.60
2023-02-24T16:59:42.751Z,9.38
2023-02-24T17:02:30.199Z,12.98
2023-02-24T17:04:57.293Z,20.58
2023-02-24T17:07:24.460Z,9.45
2023-02-24T17:09:51.678Z,10.32
2023-02-24T17:12:22.108Z,12.68
2023-02-24T17:15:17.802Z,12.38
2023-02-24T17:17:48.033Z,11.63
2023-02-24T17:20:20.731Z,9.85
2023-02-24T17:22:48.216Z,12.73
2023-02-24T17:25:26.987Z,11.30
2023-02-24T17:27:55.195Z,13.50
2023-02-24T17:30:25.438Z,11.65
2023-02-24T17:32:55.925Z,12.70
2023-02-24T17:35:23.750Z,14.50
2023-02-24T17:37:50.955Z,14.95
2023-02-24T17:40:18.270Z,14.15
2023-02-24T17:42:45.444Z,19.17
2023-02-24T17:45:14.245Z,20.02
2023-02-24T17:47:42.131Z,18.45
2023-02-24T17:50:14.435Z,17.35
2023-02-24T17:52:41.672Z,15.32
2023-02-24T17:55:09.657Z,15.10
2023-02-24T17:57:37.488Z,13.05
2023-02-24T18:00:06.504Z,16.23
2023-02-24T18:02:33.757Z,16.85
2023-02-24T18:05:04.190Z,13.25
2023-02-24T18:07:31.217Z,18.92
2023-02-24T18:09:59.564Z,18.52
2023-02-24T18:12:27.469Z,14.20
2023-02-24T18:15:07.443Z,13.45
2023-02-24T18:17:36.117Z,14.65
2023-02-24T18:20:04.182Z,14.00
2023-02-24T18:22:31.492Z,19.13
2023-02-24T18:24:59.400Z,16.58
2023-02-24T18:27:26.827Z,12.48
2023-02-24T18:29:54.563Z,19.55
2023-02-24T18:32:21.979Z,20.15
2023-02-24T18:34:49.374Z,15.13
2023-02-24T18:37:16.417Z,15.32
2023-02-24T18:39:43.468Z,16.15
2023-02-24T18:42:11.715Z,15.63
2023-02-24T18:44:38.755Z,25.27
2023-02-24T18:47:09.855Z,21.23
2023-02-24T18:49:37.729Z,20.33
2023-02-24T18:52:07.482Z,16.63
2023-02-24T18:54:34.875Z,19.70
2023-02-24T18:57:02.217Z,18.10
2023-02-24T18:59:29.379Z,19.33
2023-02-24T19:01:56.929Z,16.75
2023-02-24T19:04:25.134Z,15.52
2023-02-24T19:06:52.632Z,18.63
2023-02-24T19:09:22.800Z,16.90
2023-02-24T19:11:50.372Z,21.30
2023-02-24T19:14:17.824Z,18.23
2023-02-24T19:16:45.489Z,20.52
2023-02-24T19:19:14.743Z,19.95
2023-02-24T19:21:42.288Z,20.52
2023-02-24T19:24:11.174Z,24.13
2023-02-24T19:26:38.783Z,19.90
2023-02-24T19:29:06.397Z,20.92
2023-02-24T19:31:34.328Z,24.33
2023-02-24T19:34:05.525Z,24.58
2023-02-24T19:36:34.548Z,24.13
2023-02-24T19:39:01.724Z,23.45
2023-02-24T19:41:29.153Z,19.15
2023-02-24T19:43:56.289Z,24.95
2023-02-24T19:46:24.012Z,16.67
2023-02-24T19:48:52.644Z,21.00
2023-02-24T19:51:22.810Z,17.25
2023-02-24T19:53:54.226Z,18.63
2023-02-24T19:56:29.966Z,16.58
2023-02-24T19:58:58.572Z,15.40
2023-02-24T20:01:27.270Z,19.00
2023-02-24T20:03:57.030Z,17.88
2023-02-24T20:06:38.815Z,18.67
2023-02-24T20:09:08.239Z,16.98
2023-02-24T20:11:37.417Z,17.90
2023-02-24T20:16:40.040Z,16.95
2023-02-24T20:19:09.091Z,17.90
2023-02-24T20:21:38.666Z,19.98
2023-02-24T20:24:08.945Z,24.15
2023-02-24T20:26:38.114Z,21.75
2023-02-24T20:31:34.801Z,17.00
2023-02-24T20:34:08.799Z,17.80
2023-02-24T20:36:36.157Z,24.27
2023-02-24T20:39:12.866Z,19.20
2023-02-24T20:41:50.925Z,17.30
2023-02-24T20:44:21.579Z,20.35
2023-02-24T20:46:49.238Z,19.25
2023-02-24T20:49:16.559Z,22.67
2023-02-24T20:51:44.386Z,22.10
2023-02-24T20:54:12.951Z,18.40
2023-02-24T20:56:42.262Z,16.88
2023-02-24T20:59:22.059Z,17.67
2023-02-24T21:01:49.962Z,17.08
2023-02-24T21:04:20.180Z,18.23
2023-02-24T21:06:48.309Z,20.02
2023-02-24T21:09:16.196Z,14.38
2023-02-24T21:11:43.357Z,17.45
2023-02-24T21:14:15.683Z,17.30
2023-02-24T21:16:43.139Z,17.38
2023-02-24T21:19:13.507Z,20.52
2023-02-24T21:21:41.179Z,21.20
2023-02-24T21:24:08.657Z,18.38
2023-02-24T21:26:35.787Z,20.42
2023-02-24T21:29:03.085Z,18.88
2023-02-24T21:31:30.329Z,17.83
2023-02-24T21:33:57.517Z,15.85
2023-02-24T21:36:29.282Z,20.10
2023-02-24T21:38:56.566Z,13.90
2023-02-24T21:41:24.116Z,19.83
2023-02-24T21:43:55.542Z,19.42
2023-02-24T21:46:24.932Z,21.15
2023-02-24T21:48:59.059Z,20.58
2023-02-24T21:51:27.826Z,18.23
2023-02-24T21:53:58.294Z,23.98
2023-02-24T21:56:30.062Z,23.58
2023-02-24T21:59:00.227Z,22.88
2023-02-24T22:01:36.070Z,21.73
2023-02-24T22:04:06.186Z,23.58
2023-02-24T22:06:35.317Z,25.20
2023-02-24T22:11:50.386Z,26.08
2023-02-24T22:14:41.384Z,24.75
2023-02-24T22:17:11.638Z,30.85
2023-02-24T22:19:39.017Z,23.95
2023-02-24T22:22:06.348Z,21.55
2023-02-24T22:24:33.659Z,25.55
2023-02-24T22:27:00.921Z,25.38
2023-02-24T22:29:28.082Z,21.67
2023-02-24T22:31:55.446Z,22.52
2023-02-24T22:34:22.758Z,20.52
2023-02-24T22:36:50.000Z,21.88
2023-02-24T22:39:17.362Z,22.98
2023-02-24T22:41:46.928Z,24.08
2023-02-24T22:44:14.492Z,26.63
2023-02-24T22:46:41.869Z,24.00
2023-02-24T22:49:09.143Z,22.63
2023-02-24T22:51:36.310Z,23.52
2023-02-24T22:54:04.386Z,19.65
2023-02-24T22:56:32.283Z,18.45
2023-02-24T22:59:00.737Z,29.63
2023-02-24T23:01:33.472Z,20.80
2023-02-24T23:04:02.440Z,20.30
2023-02-24T23:06:30.743Z,24.08
2023-02-24T23:08:59.897Z,18.92
2023-02-24T23:11:36.509Z,18.95
2023-02-24T23:14:06.264Z,24.05
2023-02-24T23:16:35.230Z,22.85
2023-02-24T23:19:08.848Z,20.70
2023-02-24T23:21:42.148Z,24.58
2023-02-24T23:24:11.192Z,23.38
2023-02-24T23:26:51.502Z,20.63
2023-02-24T23:29:19.828Z,18.50
2023-02-24T23:31:47.847Z,17.17
2023-02-24T23:34:15.886Z,17.55
2023-02-24T23:36:46.316Z,21.25
2023-02-24T23:39:16.220Z,15.77
2023-02-24T23:41:43.717Z,20.10
2023-02-24T23:44:12.616Z,20.50
2023-02-24T23:46:41.969Z,17.67
2023-02-24T23:49:09.308Z,16.45
2023-02-24T23:51:47.639Z,19.73
2023-02-24T23:54:18.621Z,17.27
2023-02-24T23:56:46.748Z,23.98
2023-02-24T23:59:14.922Z,20.02
